Archival Weather

General Ignacio P Garcia Intl

General Ignacio P Garcia Intl, Mexico (MMHO)

Report from: Wednesday, December 6, 2023 12:40 AM CST
Current time: Tuesday, May 21, 2024 10:19 AM CST

Current weather – Weather history – Daily summaries
Weather forecast

Temperature17.0°C (62.6°F)
Dew point1.0°C (33.8°F)
Winds 2 kts (1 m/s, 2.3 mph) South-Southeast (160°)
Visibility10 mi. (16.1 km)
Clouds Scattered clouds 9,000 ft. (2,743 m)
Scattered clouds 20,000 ft. (6,096 m)
Altimeter30.07 in.Hg (1018 mB)
Relative humidity34 %
Density altitude167 ft. (51 m)
Remarks Corrected report
Flight conditions Visual Meteorological Conditions
Raw dataCOR MMHO 060640Z 16002KT 10SM SCT090 SCT200 17/01 A3007 RMK 8/038 HZY
An error has occurred. This application may no longer respond until reloaded. Reload 🗙